createdAt,value
2018-09-23T00:02:21.012Z,3.40
2018-09-23T00:04:48.252Z,3.97
2018-09-23T00:07:15.528Z,2.67
2018-09-23T00:09:42.728Z,3.20
2018-09-23T00:12:10.113Z,4.30
2018-09-23T00:14:38.196Z,2.90
2018-09-23T00:17:05.549Z,9.40
2018-09-23T00:19:32.780Z,2.93
2018-09-23T00:22:00.016Z,4.60
2018-09-23T00:24:27.236Z,4.83
2018-09-23T00:26:54.457Z,4.13
2018-09-23T00:29:27.517Z,6.30
2018-09-23T00:31:54.727Z,4.10
2018-09-23T00:34:21.936Z,3.03
2018-09-23T00:36:49.668Z,3.27
2018-09-23T00:39:16.952Z,6.07
2018-09-23T00:41:44.177Z,6.20
2018-09-23T00:44:11.419Z,6.47
2018-09-23T00:46:38.672Z,4.72
2018-09-23T00:49:05.880Z,5.50
2018-09-23T00:51:33.164Z,6.20
2018-09-23T00:54:00.384Z,5.97
2018-09-23T00:56:27.597Z,5.17
2018-09-23T00:58:54.856Z,7.07
2018-09-23T01:01:23.089Z,8.93
2018-09-23T01:03:50.300Z,5.73
2018-09-23T01:06:17.542Z,5.10
2018-09-23T01:08:44.749Z,7.17
2018-09-23T01:11:12.069Z,5.30
2018-09-23T01:13:39.312Z,10.93
2018-09-23T01:16:06.628Z,8.80
2018-09-23T01:18:33.865Z,7.93
2018-09-23T01:21:01.066Z,10.63
2018-09-23T01:23:28.343Z,8.30
2018-09-23T01:25:55.557Z,10.63
2018-09-23T01:28:23.451Z,7.33
2018-09-23T01:30:51.172Z,7.70
2018-09-23T01:33:18.473Z,7.40
2018-09-23T01:35:45.745Z,7.43
2018-09-23T01:38:12.967Z,12.60
2018-09-23T01:40:40.216Z,8.40
2018-09-23T01:43:07.425Z,8.00
2018-09-23T01:45:35.635Z,7.73
2018-09-23T01:48:02.848Z,7.37
2018-09-23T01:50:30.082Z,6.70
2018-09-23T01:52:57.293Z,7.20
2018-09-23T01:55:24.484Z,8.23
2018-09-23T01:57:51.727Z,6.17
2018-09-23T02:00:18.968Z,7.23
2018-09-23T02:02:46.172Z,6.63
2018-09-23T02:05:13.408Z,6.63
2018-09-23T02:07:40.645Z,6.80
2018-09-23T02:10:07.856Z,7.20
2018-09-23T02:12:35.080Z,5.97
2018-09-23T02:15:02.305Z,4.77
2018-09-23T02:17:29.525Z,6.03
2018-09-23T02:19:56.772Z,6.10
2018-09-23T02:22:23.993Z,9.40
2018-09-23T02:24:51.224Z,4.70
2018-09-23T02:27:18.452Z,4.10
2018-09-23T02:29:45.698Z,5.90
2018-09-23T02:32:12.896Z,8.33
2018-09-23T02:34:40.130Z,5.80
2018-09-23T02:37:07.368Z,6.07
2018-09-23T02:39:34.596Z,5.50
2018-09-23T02:42:01.849Z,4.07
2018-09-23T02:44:29.064Z,4.67
2018-09-23T02:46:56.277Z,4.07
2018-09-23T02:49:23.513Z,4.60
2018-09-23T02:51:50.721Z,3.80
2018-09-23T02:54:17.953Z,4.10
2018-09-23T02:56:45.268Z,6.10
2018-09-23T02:59:12.517Z,5.00
2018-09-23T03:01:39.752Z,5.03
2018-09-23T03:04:08.048Z,3.60
2018-09-23T03:06:35.316Z,3.23
2018-09-23T03:09:03.392Z,3.50
2018-09-23T03:11:30.600Z,3.50
2018-09-23T03:13:57.817Z,4.23
2018-09-23T03:16:25.048Z,3.73
2018-09-23T03:18:52.320Z,3.60
2018-09-23T03:21:19.568Z,3.83
2018-09-23T03:23:46.767Z,4.20
2018-09-23T03:26:14.004Z,3.40
2018-09-23T03:28:41.240Z,2.93
2018-09-23T03:31:08.475Z,3.00
2018-09-23T03:33:35.693Z,6.30
2018-09-23T03:36:02.944Z,2.30
2018-09-23T03:38:30.208Z,2.20
2018-09-23T03:40:57.500Z,2.70
2018-09-23T03:43:24.733Z,2.00
2018-09-23T03:45:51.940Z,1.80
2018-09-23T03:48:19.152Z,2.00
2018-09-23T03:50:46.424Z,2.00
2018-09-23T03:53:13.644Z,1.90
2018-09-23T03:55:40.871Z,1.40
2018-09-23T03:58:08.190Z,2.00
2018-09-23T04:00:35.397Z,1.60
2018-09-23T04:03:02.612Z,1.67
2018-09-23T04:05:29.840Z,1.20
2018-09-23T04:07:57.177Z,1.53
2018-09-23T04:10:24.384Z,1.00
2018-09-23T04:12:51.600Z,1.77
2018-09-23T04:15:18.836Z,1.47
2018-09-23T04:17:46.127Z,1.20
2018-09-23T04:20:13.361Z,1.33
2018-09-23T04:22:46.293Z,0.87
2018-09-23T04:25:13.749Z,1.37
2018-09-23T04:27:40.961Z,1.30
2018-09-23T04:30:08.189Z,0.97
2018-09-23T04:32:35.421Z,1.70
2018-09-23T04:35:02.671Z,7.80
2018-09-23T04:37:29.891Z,1.63
2018-09-23T04:39:57.675Z,1.00
2018-09-23T04:42:24.911Z,1.00
2018-09-23T04:44:52.141Z,0.70
2018-09-23T04:47:19.376Z,1.07
2018-09-23T04:49:46.579Z,1.00
2018-09-23T04:52:13.796Z,0.77
2018-09-23T04:54:41.100Z,0.97
2018-09-23T04:57:08.301Z,0.80
2018-09-23T04:59:35.525Z,1.00
2018-09-23T05:02:02.753Z,0.80
2018-09-23T05:04:29.992Z,0.80
2018-09-23T05:06:57.252Z,0.80
2018-09-23T05:09:24.604Z,0.70
2018-09-23T05:11:51.962Z,1.00
2018-09-23T05:14:19.197Z,1.53
2018-09-23T05:16:46.463Z,0.90
2018-09-23T05:19:13.745Z,0.90
2018-09-23T05:21:41.066Z,1.30
2018-09-23T05:24:08.340Z,0.73
2018-09-23T05:26:35.528Z,0.90
2018-09-23T05:29:02.744Z,1.30
2018-09-23T05:31:30.013Z,1.00
2018-09-23T05:33:57.431Z,1.20
2018-09-23T05:36:24.632Z,1.10
2018-09-23T05:38:51.884Z,1.30
2018-09-23T05:41:19.092Z,0.90
2018-09-23T05:43:46.304Z,1.00
2018-09-23T05:46:13.536Z,1.03
2018-09-23T05:48:40.749Z,1.50
2018-09-23T05:51:07.956Z,1.03
2018-09-23T05:53:35.157Z,1.67
2018-09-23T05:56:02.340Z,1.77
2018-09-23T05:58:29.580Z,1.30
2018-09-23T06:00:56.840Z,1.40
2018-09-23T06:03:24.073Z,1.57
2018-09-23T06:05:51.404Z,1.40
2018-09-23T06:08:18.640Z,1.70
2018-09-23T06:10:45.876Z,1.77
2018-09-23T06:13:13.104Z,6.30
2018-09-23T06:15:40.323Z,1.63
2018-09-23T06:18:07.530Z,1.60
2018-09-23T06:20:34.768Z,1.60
2018-09-23T06:23:02.001Z,2.30
2018-09-23T06:25:29.448Z,1.90
2018-09-23T06:27:56.688Z,1.63
2018-09-23T06:30:23.912Z,1.40
2018-09-23T06:32:51.139Z,1.50
2018-09-23T06:35:18.409Z,1.60
2018-09-23T06:37:45.682Z,1.47
2018-09-23T06:40:12.907Z,1.93
2018-09-23T06:42:40.404Z,1.20
2018-09-23T06:45:08.666Z,1.87
2018-09-23T06:47:35.888Z,1.73
2018-09-23T06:50:03.140Z,2.20
2018-09-23T06:52:30.376Z,2.60
2018-09-23T06:54:58.176Z,1.57
2018-09-23T06:57:25.454Z,2.00
2018-09-23T06:59:52.665Z,2.77
2018-09-23T07:02:19.912Z,1.70
2018-09-23T07:04:47.221Z,1.30
2018-09-23T07:07:14.408Z,1.00
2018-09-23T07:09:41.614Z,1.97
2018-09-23T07:12:08.941Z,1.63
2018-09-23T07:14:36.148Z,1.40
2018-09-23T07:17:03.364Z,1.10
2018-09-23T07:19:30.597Z,2.00
2018-09-23T07:21:57.856Z,2.00
2018-09-23T07:24:25.633Z,1.33
2018-09-23T07:26:52.832Z,2.83
2018-09-23T07:29:20.036Z,1.53
2018-09-23T07:31:47.267Z,0.97
2018-09-23T07:34:15.533Z,1.70
2018-09-23T07:36:42.837Z,1.00
2018-09-23T07:39:10.584Z,0.87
2018-09-23T07:41:37.852Z,1.17
2018-09-23T07:44:05.844Z,1.33
2018-09-23T07:46:33.068Z,1.57
2018-09-23T07:49:00.273Z,1.37
2018-09-23T07:51:27.590Z,2.00
2018-09-23T07:53:54.796Z,0.70
2018-09-23T07:56:22.236Z,1.30
2018-09-23T07:58:49.482Z,0.80
2018-09-23T08:01:16.860Z,0.93
2018-09-23T08:03:44.086Z,1.27
2018-09-23T08:06:11.325Z,0.77
2018-09-23T08:08:38.513Z,2.77
2018-09-23T08:11:06.043Z,0.87
2018-09-23T08:13:33.363Z,0.87
2018-09-23T08:16:00.573Z,1.50
2018-09-23T08:18:27.792Z,1.50
2018-09-23T08:20:55.047Z,0.80
2018-09-23T08:23:22.317Z,2.27
2018-09-23T08:25:49.545Z,0.80
2018-09-23T08:28:16.791Z,0.73
2018-09-23T08:30:43.997Z,1.20
2018-09-23T08:33:11.313Z,1.47
2018-09-23T08:35:38.556Z,0.97
2018-09-23T08:38:05.802Z,2.80
2018-09-23T08:40:33.070Z,0.70
2018-09-23T08:43:00.339Z,1.37
2018-09-23T08:45:27.544Z,0.87
2018-09-23T08:47:54.779Z,0.87
2018-09-23T08:50:22.008Z,0.60
2018-09-23T08:52:49.225Z,1.90
2018-09-23T08:55:16.473Z,1.03
2018-09-23T08:57:43.770Z,0.80
2018-09-23T09:00:10.942Z,1.57
2018-09-23T09:02:38.149Z,0.90
2018-09-23T09:05:05.754Z,0.67
2018-09-23T09:07:32.965Z,0.70
2018-09-23T09:10:00.186Z,1.13
2018-09-23T09:12:27.441Z,0.83
2018-09-23T09:14:54.660Z,0.90
2018-09-23T09:17:21.888Z,0.67
2018-09-23T09:19:49.127Z,0.60
2018-09-23T09:22:16.332Z,1.27
2018-09-23T09:24:43.562Z,1.23
2018-09-23T09:27:10.829Z,0.80
2018-09-23T09:29:37.968Z,0.77
2018-09-23T09:32:05.151Z,1.17
2018-09-23T09:34:32.392Z,3.10
2018-09-23T09:36:59.746Z,2.07
2018-09-23T09:39:26.997Z,1.07
2018-09-23T09:41:54.248Z,2.27
2018-09-23T09:44:21.560Z,0.80
2018-09-23T09:46:48.822Z,1.60
2018-09-23T09:49:16.072Z,1.60
2018-09-23T09:51:43.277Z,1.50
2018-09-23T09:54:10.500Z,1.30
2018-09-23T09:56:37.760Z,0.70
2018-09-23T09:59:05.180Z,0.83
2018-09-23T10:01:32.379Z,1.10
2018-09-23T10:03:59.614Z,1.60
2018-09-23T10:06:26.879Z,1.37
2018-09-23T10:08:54.094Z,1.13
2018-09-23T10:11:21.310Z,1.17
2018-09-23T10:13:48.508Z,0.90
2018-09-23T10:16:15.716Z,0.60
2018-09-23T10:18:42.985Z,0.83
2018-09-23T10:21:10.221Z,2.83
2018-09-23T10:23:37.531Z,0.87
2018-09-23T10:26:04.993Z,3.03
2018-09-23T10:28:32.202Z,3.00
2018-09-23T10:30:59.444Z,1.33
2018-09-23T10:33:27.658Z,0.50
2018-09-23T10:35:54.874Z,0.70
2018-09-23T10:38:22.079Z,0.50
2018-09-23T10:40:49.275Z,0.90
2018-09-23T10:43:16.505Z,0.40
2018-09-23T10:45:43.748Z,2.60
2018-09-23T10:48:11.008Z,2.93
2018-09-23T10:50:38.243Z,1.00
2018-09-23T10:53:05.651Z,0.93
2018-09-23T10:55:32.995Z,4.20
2018-09-23T10:58:00.156Z,0.80
2018-09-23T11:00:27.388Z,0.50
2018-09-23T11:02:54.808Z,0.50
2018-09-23T11:05:22.071Z,0.60
2018-09-23T11:07:49.295Z,1.27
2018-09-23T11:10:16.505Z,0.50
2018-09-23T11:12:43.753Z,0.50
2018-09-23T11:15:11.079Z,0.40
2018-09-23T11:17:38.312Z,0.80
2018-09-23T11:20:05.559Z,0.60
2018-09-23T11:22:33.844Z,0.80
2018-09-23T11:25:03.191Z,1.40
2018-09-23T11:27:30.441Z,0.50
2018-09-23T11:29:58.292Z,0.40
2018-09-23T11:32:25.489Z,0.50
2018-09-23T11:34:52.720Z,0.50
2018-09-23T11:37:19.954Z,0.40
2018-09-23T11:39:48.215Z,0.40
2018-09-23T11:42:15.456Z,0.63
2018-09-23T11:44:42.644Z,0.87
2018-09-23T11:47:09.868Z,1.13
2018-09-23T11:49:37.064Z,0.57
2018-09-23T11:52:04.441Z,1.70
2018-09-23T11:54:31.656Z,1.17
2018-09-23T11:56:58.888Z,1.43
2018-09-23T11:59:26.147Z,0.50
2018-09-23T12:01:55.562Z,1.23
2018-09-23T12:04:22.783Z,0.60
2018-09-23T12:06:50.696Z,1.00
2018-09-23T12:09:17.897Z,0.57
2018-09-23T12:11:45.126Z,0.77
2018-09-23T12:14:12.345Z,0.43
2018-09-23T12:16:39.557Z,1.10
2018-09-23T12:19:06.788Z,0.47
2018-09-23T12:21:34.017Z,0.40
2018-09-23T12:24:01.233Z,0.40
2018-09-23T12:26:28.461Z,0.70
2018-09-23T12:28:55.716Z,1.00
2018-09-23T12:31:22.968Z,0.60
2018-09-23T12:33:50.178Z,0.40
2018-09-23T12:36:17.448Z,1.03
2018-09-23T12:38:44.680Z,0.80
2018-09-23T12:41:11.927Z,0.40
2018-09-23T12:43:39.124Z,0.60
2018-09-23T12:46:06.413Z,0.40
2018-09-23T12:48:33.604Z,0.97
2018-09-23T12:51:00.820Z,0.47
2018-09-23T12:53:28.030Z,0.40
2018-09-23T12:55:55.245Z,0.40
2018-09-23T12:58:22.469Z,0.70
2018-09-23T13:00:49.685Z,0.50
2018-09-23T13:03:16.905Z,0.80
2018-09-23T13:05:44.137Z,5.13
2018-09-23T13:08:11.332Z,2.87
2018-09-23T13:10:38.873Z,0.53
2018-09-23T13:13:06.165Z,0.70
2018-09-23T13:15:33.601Z,0.90
2018-09-23T13:18:00.853Z,0.80
2018-09-23T13:20:28.093Z,0.60
2018-09-23T13:22:55.308Z,0.70
2018-09-23T13:25:22.498Z,0.40
2018-09-23T13:27:49.789Z,0.73
2018-09-23T13:30:17.317Z,1.10
2018-09-23T13:32:44.518Z,0.50
2018-09-23T13:35:12.539Z,0.40
2018-09-23T13:37:39.777Z,0.40
2018-09-23T13:40:08.056Z,0.63
2018-09-23T13:42:35.251Z,2.13
2018-09-23T13:45:02.488Z,0.87
2018-09-23T13:47:29.703Z,0.77
2018-09-23T13:49:56.929Z,1.77
2018-09-23T13:52:24.171Z,0.40
2018-09-23T13:54:51.425Z,0.87
2018-09-23T13:57:18.644Z,0.40
2018-09-23T13:59:45.896Z,0.73
2018-09-23T14:02:13.117Z,0.97
2018-09-23T14:04:40.379Z,0.50
2018-09-23T14:07:07.572Z,0.40
2018-09-23T14:09:34.791Z,1.17
2018-09-23T14:12:02.013Z,0.97
2018-09-23T14:14:29.229Z,0.73
2018-09-23T14:16:57.033Z,0.97
2018-09-23T14:19:24.621Z,0.40
2018-09-23T14:21:52.128Z,0.50
2018-09-23T14:24:19.340Z,1.23
2018-09-23T14:26:47.553Z,0.40
2018-09-23T14:29:14.794Z,0.60
2018-09-23T14:31:42.009Z,0.60
2018-09-23T14:34:09.255Z,1.70
2018-09-23T14:36:36.497Z,0.50
2018-09-23T14:39:06.416Z,0.40
2018-09-23T14:41:33.621Z,1.50
2018-09-23T14:44:00.846Z,0.50
2018-09-23T14:46:28.045Z,0.50
2018-09-23T14:48:55.334Z,3.60
2018-09-23T14:51:22.503Z,0.50
2018-09-23T14:53:49.717Z,2.53
2018-09-23T14:56:17.479Z,0.60
2018-09-23T14:58:44.716Z,0.60
2018-09-23T15:01:11.960Z,2.70
2018-09-23T15:03:39.193Z,1.90
2018-09-23T15:06:06.455Z,1.07
2018-09-23T15:08:33.689Z,2.20
2018-09-23T15:11:00.943Z,1.20
2018-09-23T15:13:28.135Z,0.40
2018-09-23T15:15:55.340Z,1.80
2018-09-23T15:18:22.568Z,0.77
2018-09-23T15:20:49.877Z,2.23
2018-09-23T15:23:17.064Z,0.50
2018-09-23T15:25:44.305Z,0.50
2018-09-23T15:28:11.517Z,0.67
2018-09-23T15:30:38.756Z,0.87
2018-09-23T15:33:05.958Z,0.90
2018-09-23T15:35:33.379Z,1.70
2018-09-23T15:38:00.607Z,0.90
2018-09-23T15:40:27.846Z,0.40
2018-09-23T15:42:55.128Z,3.43
2018-09-23T15:45:22.336Z,2.30
2018-09-23T15:47:49.536Z,1.40
2018-09-23T15:50:16.728Z,0.50
2018-09-23T15:52:44.004Z,0.70
2018-09-23T15:55:11.404Z,0.63
2018-09-23T15:57:38.636Z,0.90
2018-09-23T16:00:05.901Z,1.23
2018-09-23T16:02:33.148Z,1.37
2018-09-23T16:05:00.360Z,1.37
2018-09-23T16:07:27.612Z,1.30
2018-09-23T16:09:54.865Z,4.50
2018-09-23T16:12:22.074Z,2.20
2018-09-23T16:14:49.289Z,2.00
2018-09-23T16:17:16.582Z,0.50
2018-09-23T16:19:43.813Z,2.37
2018-09-23T16:22:11.046Z,3.00
2018-09-23T16:24:38.273Z,2.87
2018-09-23T16:27:05.561Z,0.50
2018-09-23T16:29:32.833Z,0.60
2018-09-23T16:32:00.924Z,3.90
2018-09-23T16:34:28.128Z,0.40
2018-09-23T16:36:55.943Z,0.60
2018-09-23T16:39:23.184Z,0.80
2018-09-23T16:41:50.395Z,1.07
2018-09-23T16:44:17.706Z,1.23
2018-09-23T16:46:44.919Z,1.50
2018-09-23T16:49:12.125Z,1.07
2018-09-23T16:51:39.355Z,0.67
2018-09-23T16:54:06.560Z,0.67
2018-09-23T16:56:33.795Z,1.90
2018-09-23T16:59:01.008Z,1.50
2018-09-23T17:01:28.236Z,0.70
2018-09-23T17:03:55.479Z,0.77
2018-09-23T17:06:22.944Z,0.70
2018-09-23T17:08:50.193Z,0.93
2018-09-23T17:11:17.424Z,2.13
2018-09-23T17:13:44.777Z,1.00
2018-09-23T17:16:11.992Z,0.57
2018-09-23T17:18:40.249Z,1.63
2018-09-23T17:21:07.500Z,0.60
2018-09-23T17:23:34.709Z,0.70
2018-09-23T17:26:01.920Z,0.57
2018-09-23T17:28:29.238Z,0.50
2018-09-23T17:30:56.355Z,0.60
2018-09-23T17:33:24.220Z,0.70
2018-09-23T17:35:51.437Z,1.13
2018-09-23T17:38:18.671Z,1.60
2018-09-23T17:40:45.910Z,1.20
2018-09-23T17:43:13.145Z,0.50
2018-09-23T17:45:40.352Z,0.50
2018-09-23T17:48:07.596Z,1.63
2018-09-23T17:50:34.795Z,0.40
2018-09-23T17:53:02.029Z,1.77
2018-09-23T17:55:29.301Z,0.50
2018-09-23T17:57:56.495Z,0.60
2018-09-23T18:00:23.749Z,1.23
2018-09-23T18:02:50.969Z,1.63
2018-09-23T18:05:18.292Z,0.50
2018-09-23T18:07:45.514Z,2.13
2018-09-23T18:10:12.737Z,0.93
2018-09-23T18:12:39.957Z,1.13
2018-09-23T18:15:07.246Z,1.40
2018-09-23T18:17:34.486Z,0.70
2018-09-23T18:20:01.704Z,1.07
2018-09-23T18:22:28.952Z,0.60
2018-09-23T18:24:56.220Z,1.13
2018-09-23T18:27:23.423Z,1.47
2018-09-23T18:29:50.701Z,1.10
2018-09-23T18:32:17.932Z,0.70
2018-09-23T18:34:45.153Z,0.50
2018-09-23T18:37:12.508Z,3.23
2018-09-23T18:39:39.692Z,0.60
2018-09-23T18:42:06.963Z,2.37
2018-09-23T18:44:34.223Z,0.60
2018-09-23T18:47:01.402Z,0.70
2018-09-23T18:49:29.107Z,0.50
2018-09-23T18:51:56.364Z,1.07
2018-09-23T18:54:29.413Z,0.60
2018-09-23T18:56:56.670Z,0.60
2018-09-23T18:59:24.021Z,3.60
2018-09-23T19:01:51.242Z,1.20
2018-09-23T19:04:18.497Z,4.43
2018-09-23T19:06:45.700Z,0.70
2018-09-23T19:09:13.004Z,0.80
2018-09-23T19:11:40.244Z,1.23
2018-09-23T19:14:07.859Z,0.60
2018-09-23T19:16:35.293Z,0.43
2018-09-23T19:19:02.540Z,1.43
2018-09-23T19:21:30.109Z,1.80
2018-09-23T19:23:57.833Z,0.50
2018-09-23T19:26:25.520Z,3.07
2018-09-23T19:28:53.099Z,1.80
2018-09-23T19:31:20.411Z,2.33
2018-09-23T19:33:47.676Z,0.80
2018-09-23T19:36:15.032Z,2.87
2018-09-23T19:38:42.371Z,3.90
2018-09-23T19:41:09.638Z,2.90
2018-09-23T19:43:36.953Z,1.93
2018-09-23T19:46:04.716Z,3.70
2018-09-23T19:48:32.128Z,0.63
2018-09-23T19:50:59.678Z,0.90
2018-09-23T19:53:26.947Z,2.73
2018-09-23T19:55:54.228Z,1.03
2018-09-23T19:58:22.101Z,4.90
2018-09-23T20:00:49.395Z,1.33
2018-09-23T20:03:16.817Z,1.33
2018-09-23T20:05:44.143Z,3.03
2018-09-23T20:08:11.425Z,1.37
2018-09-23T20:10:38.816Z,1.53
2018-09-23T20:13:06.170Z,1.17
2018-09-23T20:15:33.446Z,1.03
2018-09-23T20:18:00.700Z,1.63
2018-09-23T20:20:27.936Z,0.70
2018-09-23T20:22:55.181Z,1.30
2018-09-23T20:25:22.413Z,1.17
2018-09-23T20:27:49.649Z,2.27
2018-09-23T20:30:16.914Z,0.70
2018-09-23T20:32:44.128Z,1.80
2018-09-23T20:35:11.357Z,1.17
2018-09-23T20:37:38.716Z,0.50
2018-09-23T20:40:06.176Z,2.07
2018-09-23T20:42:33.424Z,1.53
2018-09-23T20:45:01.074Z,0.50
2018-09-23T20:47:28.281Z,0.83
2018-09-23T20:49:55.702Z,2.10
2018-09-23T20:52:23.069Z,0.60
2018-09-23T20:54:51.096Z,0.60
2018-09-23T20:57:18.589Z,0.50
2018-09-23T20:59:45.871Z,0.97
2018-09-23T21:02:13.141Z,0.63
2018-09-23T21:04:41.136Z,0.67
2018-09-23T21:07:08.348Z,0.70
2018-09-23T21:09:35.593Z,1.67
2018-09-23T21:12:03.369Z,2.10
2018-09-23T21:14:30.604Z,0.97
2018-09-23T21:16:57.893Z,0.80
2018-09-23T21:19:25.249Z,1.90
2018-09-23T21:21:53.345Z,0.40
2018-09-23T21:24:20.601Z,0.60
2018-09-23T21:26:47.841Z,0.63
2018-09-23T21:29:15.068Z,1.10
2018-09-23T21:31:42.300Z,1.50
2018-09-23T21:34:09.521Z,1.40
2018-09-23T21:36:36.768Z,0.50
2018-09-23T21:39:05.770Z,0.57
2018-09-23T21:41:32.997Z,0.53
2018-09-23T21:44:00.252Z,0.60
2018-09-23T21:46:27.500Z,0.60
2018-09-23T21:48:54.759Z,1.90
2018-09-23T21:51:21.971Z,0.70
2018-09-23T21:53:49.172Z,0.80
2018-09-23T21:56:16.456Z,0.80
2018-09-23T21:58:43.704Z,0.60
2018-09-23T22:01:10.956Z,0.73
2018-09-23T22:03:38.805Z,0.60
2018-09-23T22:06:06.236Z,1.00
2018-09-23T22:08:33.489Z,1.00
2018-09-23T22:11:00.700Z,1.00
2018-09-23T22:13:28.957Z,0.93
2018-09-23T22:15:56.227Z,0.97
2018-09-23T22:18:23.463Z,1.13
2018-09-23T22:20:50.696Z,1.40
2018-09-23T22:23:17.964Z,1.55
2018-09-23T22:25:45.245Z,3.70
2018-09-23T22:28:12.644Z,1.03
2018-09-23T22:30:39.848Z,1.50
2018-09-23T22:33:07.075Z,1.40
2018-09-23T22:35:34.352Z,2.08
2018-09-23T22:38:01.631Z,3.10
2018-09-23T22:40:28.945Z,1.80
2018-09-23T22:42:56.148Z,1.40
2018-09-23T22:45:23.461Z,1.93
2018-09-23T22:47:50.682Z,1.90
2018-09-23T22:50:17.932Z,2.00
2018-09-23T22:52:45.185Z,1.77
2018-09-23T22:55:12.431Z,1.30
2018-09-23T22:57:39.661Z,2.62
2018-09-23T23:00:06.954Z,1.32
2018-09-23T23:02:34.190Z,1.70
2018-09-23T23:05:01.420Z,1.37
2018-09-23T23:07:28.656Z,2.00
2018-09-23T23:09:55.896Z,2.85
2018-09-23T23:12:23.114Z,1.62
2018-09-23T23:14:50.369Z,2.05
2018-09-23T23:17:17.643Z,1.57
2018-09-23T23:19:44.848Z,1.20
2018-09-23T23:22:12.063Z,0.60
2018-09-23T23:24:39.297Z,0.60
2018-09-23T23:27:06.540Z,1.72
2018-09-23T23:29:33.781Z,0.65
2018-09-23T23:32:01.065Z,0.88
2018-09-23T23:34:28.297Z,0.50
2018-09-23T23:36:55.584Z,0.60
2018-09-23T23:39:23.380Z,0.57
2018-09-23T23:41:50.612Z,0.80
2018-09-23T23:44:17.841Z,1.45
2018-09-23T23:46:45.120Z,0.70
2018-09-23T23:49:12.467Z,0.90
2018-09-23T23:51:39.695Z,1.32
2018-09-23T23:54:07.108Z,1.98
2018-09-23T23:56:34.334Z,1.65
2018-09-23T23:59:01.650Z,1.40
